Latest Weather Observations for Moorabbin Airport

IDV60801

Issued at 7:12 am EDT Friday 21 January 2022 (issued every 10 minutes, with the page automatically refreshed every 10 minutes)

About weather observations | Map of weather stations | Latest weather observations for VIC | Other Formats
Station Details ID: 086077 Name: MOORABBIN AIRPORT Lat: -37.98 Lon: 145.10 Height: 12.1 m
Data from the previous 72 hours. | See also: Recent months at Moorabbin Airport
Date/Time
EDT
Temp
°C
App
Temp
°C
Dew
Point
°C
Rel
Hum
%
Delta-T
°C
Wind Press
QNH
hPa
Press
MSL
hPa
Rain since
9am
mm
Dir  Spd
km/h
Gust
km/h
Spd
kts
Gust
kts
21/07:00am 15.7 16.2 15.1 96 0.3 ESE 6 7 3 4 1027.3 1027.3 0.0
21/06:30am 14.0 15.2 13.7 98 0.2 CALM 0 0 0 0 1027.0 1027.0 0.0
21/06:00am 14.3 14.3 13.7 96 0.3 ESE 6 7 3 4 1026.8 1026.8 0.0
21/05:30am 14.5 14.6 13.9 96 0.3 ESE 6 7 3 4 1026.7 1026.7 0.0
21/05:00am 14.2 14.0 13.1 93 0.6 SE 6 7 3 4 1026.3 1026.3 0.0
21/04:30am 14.7 15.7 13.2 91 0.8 CALM 0 0 0 0 1026.0 1026.0 0.0
21/04:00am 15.0 15.2 13.2 89 1.0 E 4 7 2 4 1026.0 1026.0 0.0
21/03:30am 15.0 14.7 13.2 89 1.0 E 7 9 4 5 1025.9 1025.9 0.0
21/03:00am 15.2 14.8 12.9 86 1.3 ESE 7 9 4 5 1025.5 1025.5 0.0
21/02:30am 15.8 15.6 13.5 86 1.3 ESE 7 9 4 5 1025.5 1025.5 0.0
21/02:00am 16.6 16.1 13.7 83 1.6 ESE 9 11 5 6 1025.5 1025.5 0.0
21/01:30am 17.0 16.8 13.5 80 2.0 SE 7 13 4 7 1025.4 1025.4 0.0
21/01:00am 17.5 16.2 13.6 78 2.2 SE 13 20 7 11 1025.4 1025.4 0.0
21/12:30am 17.6 16.2 13.5 77 2.3 ESE 13 19 7 10 1025.2 1025.2 0.0
21/12:00am 18.0 16.6 13.5 75 2.5 ESE 13 17 7 9 1025.1 1025.1 0.0
 
Date/Time
EDT
Temp
°C
App
Temp
°C
Dew
Point
°C
Rel
Hum
%
Delta-T
°C
Wind Press
QNH
hPa
Press
MSL
hPa
Rain since
9am
mm
Dir  Spd
km/h
Gust
km/h
Spd
kts
Gust
kts
20/11:30pm 18.4 15.3 13.3 72 2.9 ESE 22 28 12 15 1024.8 1024.8 0.0
20/11:00pm 18.7 15.2 13.3 71 3.0 ESE 24 35 13 19 1024.7 1024.7 0.0
20/10:30pm 19.2 14.2 13.4 69 3.3 ESE 32 41 17 22 1024.6 1024.6 0.0
20/10:00pm 19.8 14.6 13.3 66 3.7 ESE 33 46 18 25 1024.6 1024.6 0.0
20/09:42pm 20.1 15.1 13.3 65 3.9 ESE 32 50 17 27 1024.5 1024.5 0.0
20/09:30pm 20.5 15.2 13.2 63 4.2 ESE 33 48 18 26 1024.3 1024.3 0.0
20/09:25pm 20.6 15.9 13.3 63 4.2 ESE 30 48 16 26 1024.3 1024.3 0.0
20/09:00pm 21.3 16.2 13.2 60 4.6 ESE 32 46 17 25 1024.0 1024.0 0.0
20/08:45pm 22.0 16.4 13.4 58 5.0 ESE 35 54 19 29 1023.9 1023.9 0.0
20/08:30pm 22.7 16.8 13.5 56 5.3 ESE 37 50 20 27 1023.8 1023.8 0.0
20/08:00pm 23.9 18.7 13.4 51 6.1 ESE 33 44 18 24 1023.8 1023.8 0.0
20/07:30pm 25.0 20.0 13.9 50 6.5 ESE 33 46 18 25 1023.7 1023.7 0.0
20/07:00pm 26.0 20.2 13.8 47 7.2 ESE 37 46 20 25 1023.4 1023.4 0.0
20/06:30pm 27.5 22.4 13.1 41 8.5 SE 32 41 17 22 1023.3 1023.3 0.0
20/06:00pm 28.3 23.2 13.0 39 9.0 ESE 32 41 17 22 1023.2 1023.2 0.0
20/05:30pm 28.6 23.4 12.9 38 9.2 SE 32 57 17 31 1023.6 1023.6 0.0
20/05:22pm 28.4 23.2 12.7 38 9.2 ESE 32 57 17 31 1023.6 1023.6 0.0
20/05:00pm 28.9 23.8 13.2 38 9.3 ESE 32 41 17 22 1023.9 1023.9 0.0
20/04:32pm 28.8 23.7 13.1 38 9.3 SE 32 52 17 28 1024.1 1024.1 0.0
20/04:30pm 28.4 23.8 13.5 40 8.8 ESE 30 46 16 25 1024.2 1024.2 0.0
20/04:00pm 28.4 23.2 12.7 38 9.2 ESE 32 41 17 22 1024.4 1024.4 0.0
20/03:30pm 28.7 23.7 12.2 36 9.6 ESE 30 43 16 23 1024.9 1024.9 0.0
20/03:00pm 28.5 23.4 12.0 36 9.5 SE 30 41 16 22 1025.1 1025.1 0.0
20/02:30pm 28.3 23.7 12.2 37 9.4 ESE 28 35 15 19 1025.3 1025.3 0.0
20/02:00pm 29.0 24.9 12.8 36 9.5 SE 26 39 14 21 1025.6 1025.6 0.0
20/01:30pm 27.1 24.0 11.6 38 8.9 ESE 19 35 10 19 1026.1 1026.1 0.0
20/01:00pm 26.8 23.7 11.7 39 8.6 SE 19 30 10 16 1026.5 1026.5 0.0
20/12:30pm 25.5 23.4 11.3 41 8.0 SSE 13 28 7 15 1026.8 1026.8 0.0
20/12:00pm 24.9 22.8 11.1 42 7.7 ESE 13 24 7 13 1027.3 1027.3 0.0
20/11:30am 23.9 22.7 11.6 46 6.9 SSE 9 15 5 8 1027.5 1027.5 0.0
20/11:00am 23.2 21.6 11.6 48 6.5 SE 11 19 6 10 1027.8 1027.8 0.0
20/10:30am 22.8 21.9 11.5 49 6.3 NE 7 15 4 8 1027.7 1027.7 0.0
20/10:00am 21.4 20.7 12.0 55 5.2 SSE 7 19 4 10 1027.6 1027.6 0.0
20/09:30am 20.4 18.1 11.6 57 4.9 ESE 15 20 8 11 1027.7 1027.7 0.0
20/09:00am 19.8 16.8 11.8 60 4.4 ESE 19 24 10 13 1027.6 1027.6 0.0
20/08:30am 18.8 15.3 12.3 66 3.6 E 22 30 12 16 1027.3 1027.3 0.0
20/08:00am 17.7 13.9 12.4 71 2.9 E 24 32 13 17 1027.1 1027.1 0.0
20/07:30am 16.6 13.8 13.1 80 2.0 ESE 20 30 11 16 1027.2 1027.2 0.0
20/07:00am 15.7 13.2 13.5 87 1.2 ESE 19 26 10 14 1027.3 1027.3 0.0
20/06:30am 15.3 11.8 13.5 89 1.0 ESE 24 33 13 18 1026.6 1026.6 0.0
20/06:00am 15.1 12.0 13.5 90 0.9 ESE 22 32 12 17 1026.4 1026.4 0.0
20/05:30am 15.3 13.2 13.7 90 0.9 E 17 26 9 14 1026.3 1026.3 0.0
20/05:00am 15.6 13.0 13.8 89 1.0 ESE 20 28 11 15 1025.9 1025.9 0.0
20/04:30am 15.7 12.0 13.9 89 1.0 ESE 26 35 14 19 1025.5 1025.5 0.0
20/04:00am 15.7 11.6 13.9 89 1.0 ESE 28 33 15 18 1025.1 1025.1 0.0
20/03:30am 15.9 11.0 13.7 87 1.2 ESE 32 41 17 22 1025.1 1025.1 0.0
20/03:00am 16.1 11.2 13.8 86 1.3 ESE 32 43 17 23 1025.4 1025.4 0.0
20/02:30am 16.1 10.7 13.8 86 1.3 ESE 35 50 19 27 1025.6 1025.6 0.0
20/02:00am 17.1 11.9 14.6 85 1.4 ESE 35 48 19 26 1025.9 1025.9 0.0
20/01:30am 16.6 10.7 13.5 82 1.7 ESE 37 46 20 25 1026.0 1026.0 0.0
20/01:00am 16.7 11.6 13.6 82 1.7 ESE 33 48 18 26 1026.2 1026.2 0.0
20/12:30am 17.0 10.3 13.5 80 2.0 ESE 41 52 22 28 1026.1 1026.1 0.0
20/12:00am 16.9 11.2 13.0 78 2.2 ESE 35 48 19 26 1026.2 1026.2 0.0
 
Date/Time
EDT
Temp
°C
App
Temp
°C
Dew
Point
°C
Rel
Hum
%
Delta-T
°C
Wind Press
QNH
hPa
Press
MSL
hPa
Rain since
9am
mm
Dir  Spd
km/h
Gust
km/h
Spd
kts
Gust
kts
19/11:30pm 17.3 12.5 12.8 75 2.5 ESE 30 41 16 22 1026.2 1026.2 0.0
19/11:00pm 17.5 12.6 12.4 72 2.8 ESE 30 41 16 22 1026.1 1026.1 0.0
19/10:30pm 17.9 12.4 11.9 68 3.3 ESE 32 44 17 24 1025.8 1025.8 0.0
19/10:00pm 18.5 13.4 11.8 65 3.7 ESE 30 39 16 21 1025.4 1025.4 0.0
19/09:54pm 18.5 13.3 11.6 64 3.8 ESE 30 48 16 26 1025.2 1025.2 0.0
19/09:30pm 19.0 14.2 11.6 62 4.1 ESE 28 44 15 24 1025.2 1025.2 0.0
19/09:12pm 19.3 14.1 11.6 61 4.2 ESE 30 52 16 28 1024.8 1024.8 0.0
19/09:00pm 19.5 13.9 11.5 60 4.4 ESE 32 44 17 24 1024.5 1024.5 0.0
19/08:30pm 20.3 12.6 11.5 57 4.9 ESE 43 54 23 29 1024.1 1024.1 0.0
19/08:00pm 21.3 14.5 11.9 55 5.2 ESE 39 52 21 28 1023.6 1023.6 0.0
19/07:31pm 22.0 15.6 12.0 53 5.6 ESE 37 56 20 30 1023.3 1023.3 0.0
19/07:30pm 22.1 15.3 12.1 53 5.6 ESE 39 56 21 30 1023.3 1023.3 0.0
19/07:15pm 22.1 15.0 12.1 53 5.6 ESE 41 59 22 32 1023.1 1023.1 0.0
19/07:00pm 22.5 14.9 11.9 51 5.9 ESE 43 56 23 30 1022.7 1022.7 0.0
19/06:30pm 23.1 15.0 12.1 50 6.2 ESE 46 65 25 35 1022.4 1022.4 0.0
19/06:00pm 23.4 14.7 12.4 50 6.3 ESE 50 69 27 37 1022.4 1022.4 0.0
19/05:30pm 23.9 16.3 12.5 49 6.5 ESE 44 69 24 37 1022.3 1022.3 0.0
19/05:00pm 24.5 16.4 12.1 46 7.0 E 46 69 25 37 1022.3 1022.3 0.0
19/04:53pm 24.8 17.2 12.4 46 7.1 ESE 44 63 24 34 1022.3 1022.3 0.0
19/04:30pm 24.4 15.7 12.4 47 6.9 ESE 50 65 27 35 1022.3 1022.3 0.0
19/04:00pm 25.7 17.3 13.5 46 7.1 ESE 50 69 27 37 1022.0 1022.0 0.0
19/03:33pm 25.1 16.8 12.7 46 7.2 ESE 48 67 26 36 1022.0 1022.0 0.0
19/03:30pm 25.3 16.7 12.9 46 7.2 ESE 50 67 27 36 1021.9 1021.9 0.0
19/03:00pm 24.5 16.1 13.4 50 6.4 ESE 50 69 27 37 1021.9 1021.9 0.0
19/02:30pm 24.8 17.2 13.7 50 6.5 ESE 46 69 25 37 1022.2 1022.2 0.0
19/02:17pm 25.4 17.4 13.6 48 6.9 ESE 48 67 26 36 1022.3 1022.3 0.0
19/02:00pm 24.8 16.0 13.4 49 6.6 ESE 52 67 28 36 1022.0 1022.0 0.0
19/01:30pm 24.3 15.6 13.8 52 6.2 ESE 52 70 28 38 1022.0 1022.0 0.0
19/01:00pm 24.7 16.9 14.2 52 6.2 ESE 48 67 26 36 1022.0 1022.0 0.0
19/12:49pm 24.6 16.4 14.1 52 6.2 SE 50 69 27 37 1022.0 1022.0 0.0
19/12:30pm 24.9 17.1 14.1 51 6.4 ESE 48 61 26 33 1021.9 1021.9 0.0
19/12:00pm 24.7 17.7 13.6 50 6.5 ESE 43 63 23 34 1021.7 1021.7 0.0
19/11:30am 23.9 15.8 14.3 55 5.7 ESE 50 69 27 37 1022.0 1022.0 0.0
19/11:00am 22.7 14.3 14.5 60 4.8 ESE 52 72 28 39 1022.1 1022.1 0.0
19/10:30am 22.0 14.3 15.6 67 3.8 ESE 50 69 27 37 1021.9 1021.9 0.0
19/10:00am 22.2 15.5 15.1 64 4.2 ESE 44 69 24 37 1021.7 1021.7 0.0
19/09:48am 22.5 16.6 15.6 65 4.1 ESE 41 59 22 32 1021.6 1021.6 0.0
19/09:30am 21.2 14.6 14.8 67 3.8 ESE 43 59 23 32 1021.4 1021.4 0.0
19/09:00am 20.7 14.3 15.3 71 3.2 ESE 43 56 23 30 1021.1 1021.1 0.0
19/08:44am 20.1 14.4 15.3 74 2.8 ESE 39 57 21 31 1020.9 1020.9 0.0
19/08:30am 19.5 14.3 15.6 78 2.3 ESE 37 50 20 27 1020.7 1020.7 0.0
19/08:00am 18.8 13.8 16.0 84 1.7 ESE 37 52 20 28 1020.2 1020.2 0.0
19/07:30am 17.7 12.9 15.7 88 1.2 ESE 35 52 19 28 1019.8 1019.8 0.0
19/07:24am 17.6 13.2 15.6 88 1.2 ESE 33 52 18 28 1019.7 1019.7 0.0
19/07:00am 17.0 12.6 15.7 92 0.8 ESE 33 46 18 25 1019.3 1019.3 0.0
19/06:30am 16.4 13.2 16.2 99 0.1 ESE 28 39 15 21 1018.9 1018.9 0.0
19/06:00am 16.4 13.2 16.2 99 0.1 SE 28 39 15 21 1018.7 1018.7 0.0
19/05:30am 16.3 12.6 16.1 99 0.1 SE 30 39 16 21 1018.4 1018.4 0.0
19/05:00am 16.2 13.6 15.9 98 0.2 SE 24 32 13 17 1018.3 1018.3 0.0
19/04:30am 15.6 13.2 14.3 92 0.7 SE 20 26 11 14 1018.2 1018.2 0.0
19/04:00am 15.7 12.8 14.1 90 0.9 SSE 22 30 12 16 1018.2 1018.2 0.0
19/03:30am 14.9 13.0 14.3 96 0.3 SSE 17 24 9 13 1018.0 1018.0 0.0
19/03:00am 14.5 13.1 14.5 100 0.0 SSE 15 20 8 11 1018.4 1018.4 0.0
19/02:30am 14.2 13.5 14.2 100 0.0 SSE 11 13 6 7 1018.4 1018.4 0.0
19/02:00am 14.1 14.1 14.1 100 0.0 SSE 7 11 4 6 1018.7 1018.7 0.0
19/01:30am 14.3 13.9 14.1 99 0.1 S 9 11 5 6 1018.9 1018.9 0.0
19/01:00am 13.6 13.0 12.3 92 0.7 SE 7 11 4 6 1019.1 1019.1 0.0
19/12:30am 15.1 13.7 13.5 90 0.9 SSE 13 17 7 9 1018.9 1018.9 0.0
19/12:00am 15.0 13.4 12.7 86 1.3 SSE 13 15 7 8 1019.0 1019.0 0.0
 
Date/Time
EDT
Temp
°C
App
Temp
°C
Dew
Point
°C
Rel
Hum
%
Delta-T
°C
Wind Press
QNH
hPa
Press
MSL
hPa
Rain since
9am
mm
Dir  Spd
km/h
Gust
km/h
Spd
kts
Gust
kts
18/11:30pm 16.2 14.4 13.3 83 1.6 SSE 15 22 8 12 1019.2 1019.2 0.0
18/11:00pm 15.9 13.4 12.3 79 2.0 SSE 17 22 9 12 1019.1 1019.1 0.0
18/10:30pm 16.1 13.5 11.9 76 2.3 SSE 17 22 9 12 1019.0 1019.0 0.0
18/10:00pm 16.2 13.5 11.6 74 2.5 SSE 17 24 9 13 1019.1 1019.1 0.0
18/09:30pm 16.4 13.6 11.3 72 2.7 SSE 17 24 9 13 1019.0 1019.0 0.0
18/09:00pm 16.9 13.9 10.5 66 3.4 SSE 17 26 9 14 1018.6 1018.6 0.0
18/08:30pm 17.4 13.4 10.3 63 3.8 S 22 33 12 18 1018.3 1018.3 0.0
18/08:00pm 18.2 14.2 10.6 61 4.1 S 22 32 12 17 1017.7 1017.7 0.0
18/07:30pm 18.7 14.4 10.8 60 4.3 S 24 32 13 17 1017.0 1017.0 0.0
18/07:00pm 18.9 14.3 11.0 60 4.3 S 26 37 14 20 1017.0 1017.0 0.0
18/06:30pm 19.2 14.9 12.0 63 4.0 S 26 39 14 21 1016.8 1016.8 0.0
18/06:00pm 19.7 15.0 12.0 61 4.3 S 28 39 15 21 1016.7 1016.7 0.0
18/05:30pm 19.7 14.6 12.0 61 4.3 S 30 39 16 21 1016.5 1016.5 0.0
18/05:00pm 19.4 15.3 11.4 60 4.4 S 24 35 13 19 1016.7 1016.7 0.0
18/04:30pm 20.0 15.2 11.8 59 4.5 S 28 39 15 21 1016.5 1016.5 0.0
18/04:00pm 20.1 15.6 11.3 57 4.8 S 26 37 14 20 1016.7 1016.7 0.0
18/03:30pm 20.2 15.7 11.4 57 4.9 SSW 26 35 14 19 1016.6 1016.6 0.0
18/03:00pm 20.1 16.0 11.6 58 4.7 SW 24 35 13 19 1016.6 1016.6 0.0
18/02:30pm 20.3 16.5 12.5 61 4.4 SSW 24 37 13 20 1016.7 1016.7 0.0
18/02:00pm 20.1 15.9 12.3 61 4.4 SSW 26 35 14 19 1016.7 1016.7 0.0
18/01:30pm 21.4 17.6 11.1 52 5.7 SW 22 32 12 17 1016.9 1016.9 0.0
18/01:00pm 21.8 17.8 10.6 49 6.1 SSW 22 33 12 18 1017.0 1017.0 0.0
18/12:30pm 20.6 16.8 11.0 54 5.3 SSW 22 32 12 17 1016.9 1016.9 0.0
18/12:00pm 21.3 17.5 11.1 52 5.6 S 22 32 12 17 1016.9 1016.9 0.0
18/11:30am 21.3 18.6 11.6 54 5.4 SSW 17 26 9 14 1016.9 1016.9 0.0
18/11:00am 20.4 18.3 11.1 55 5.1 SSE 13 20 7 11 1017.3 1017.3 0.0
18/10:30am 19.1 16.3 11.4 61 4.2 S 17 24 9 13 1017.0 1017.0 0.0
18/10:00am 18.7 16.0 10.5 59 4.4 S 15 20 8 11 1016.9 1016.9 0.0
18/09:30am 19.5 16.6 9.7 53 5.2 SSE 15 24 8 13 1016.6 1016.6 0.0
18/09:00am 19.0 16.1 11.1 60 4.3 SE 17 24 9 13 1016.6 1016.6 0.0
18/08:30am 17.9 15.5 11.5 66 3.5 S 15 20 8 11 1016.4 1016.4 0.0
18/08:00am 17.7 15.3 11.5 67 3.4 S 15 19 8 10 1016.2 1016.2 0.0
18/07:30am 17.2 15.1 11.2 68 3.2 SSE 13 19 7 10 1016.0 1016.0 0.0

Other formats

Comma delimited format used in spreadsheet applications
http://www.bom.gov.au/fwo/IDV60801/IDV60801.94870.axf

JavaScript Object Notation format (JSON) in row-major order
http://www.bom.gov.au/fwo/IDV60801/IDV60801.94870.json

Data quality

Most of these data are generated automatically and are frequently updated. Quality checks on data are not normally performed. It is possible for incorrect values to appear. Refer to information at About Latest Weather Observations and please check the disclaimer before using these data.